createdAt,value
2022-11-28T00:01:34.317Z,11.68
2022-11-28T00:04:02.297Z,11.77
2022-11-28T00:06:30.158Z,11.30
2022-11-28T00:08:59.707Z,10.52
2022-11-28T00:11:28.010Z,10.65
2022-11-28T00:13:55.977Z,11.10
2022-11-28T00:16:24.501Z,9.52
2022-11-28T00:18:54.556Z,11.05
2022-11-28T00:21:23.401Z,10.25
2022-11-28T00:23:52.082Z,10.65
2022-11-28T00:26:36.506Z,10.82
2022-11-28T00:29:05.773Z,10.05
2022-11-28T00:31:42.069Z,10.90
2022-11-28T00:34:13.154Z,10.73
2022-11-28T00:36:43.401Z,10.13
2022-11-28T00:39:11.217Z,10.80
2022-11-28T00:41:38.780Z,10.30
2022-11-28T00:44:06.606Z,9.55
2022-11-28T00:46:34.249Z,9.73
2022-11-28T00:49:01.825Z,10.68
2022-11-28T00:51:32.295Z,9.75
2022-11-28T00:54:02.847Z,10.57
2022-11-28T00:56:38.011Z,10.52
2022-11-28T00:59:07.180Z,9.73
2022-11-28T01:01:39.367Z,10.20
2022-11-28T01:04:10.685Z,10.13
2022-11-28T01:06:45.593Z,11.18
2022-11-28T01:09:21.266Z,10.35
2022-11-28T01:14:21.479Z,11.00
2022-11-28T01:16:49.431Z,10.82
2022-11-28T01:19:17.452Z,11.15
2022-11-28T01:21:45.268Z,11.23
2022-11-28T01:24:13.533Z,10.50
2022-11-28T01:26:42.687Z,11.15
2022-11-28T01:29:11.001Z,10.25
2022-11-28T01:31:39.077Z,10.48
2022-11-28T01:34:06.760Z,10.95
2022-11-28T01:36:34.349Z,10.90
2022-11-28T01:39:01.936Z,11.10
2022-11-28T01:41:29.765Z,10.68
2022-11-28T01:44:12.346Z,10.73
2022-11-28T01:46:40.236Z,10.02
2022-11-28T01:49:16.226Z,10.05
2022-11-28T01:51:52.707Z,10.68
2022-11-28T01:54:24.302Z,10.45
2022-11-28T01:57:16.331Z,9.50
2022-11-28T01:59:54.426Z,9.70
2022-11-28T02:02:39.866Z,10.00
2022-11-28T02:05:08.433Z,9.75
2022-11-28T02:07:37.353Z,10.90
2022-11-28T02:10:09.363Z,11.02
2022-11-28T02:13:11.056Z,10.85
2022-11-28T02:15:53.535Z,10.85
2022-11-28T02:18:26.887Z,10.32
2022-11-28T02:21:28.485Z,11.32
2022-11-28T02:24:14.866Z,10.55
2022-11-28T02:27:20.264Z,11.10
2022-11-28T02:30:06.468Z,11.75
2022-11-28T02:33:00.634Z,12.20
2022-11-28T02:35:33.917Z,12.10
2022-11-28T02:38:10.473Z,12.15
2022-11-28T02:41:06.983Z,12.43
2022-11-28T02:44:04.191Z,13.13
2022-11-28T02:47:01.925Z,12.88
2022-11-28T02:49:48.862Z,14.30
2022-11-28T02:52:28.933Z,12.95
2022-11-28T02:54:57.220Z,13.77
2022-11-28T02:57:38.607Z,14.52
2022-11-28T03:00:25.049Z,13.82
2022-11-28T03:03:25.514Z,14.80
2022-11-28T03:06:09.902Z,14.38
2022-11-28T03:09:33.491Z,14.75
2022-11-28T03:12:53.465Z,14.43
2022-11-28T03:15:31.048Z,15.18
2022-11-28T03:18:34.925Z,15.57
2022-11-28T03:21:28.825Z,14.57
2022-11-28T03:24:06.973Z,16.05
2022-11-28T03:27:12.200Z,14.90
2022-11-28T03:30:19.606Z,15.57
2022-11-28T03:32:52.043Z,17.83
2022-11-28T03:35:24.325Z,17.05
2022-11-28T03:38:04.900Z,17.73
2022-11-28T03:40:42.159Z,18.13
2022-11-28T03:43:15.635Z,18.52
2022-11-28T03:45:49.539Z,19.58
2022-11-28T03:48:24.881Z,18.38
2022-11-28T03:51:32.000Z,19.98
2022-11-28T03:54:14.647Z,19.25
2022-11-28T03:57:07.609Z,20.88
2022-11-28T03:59:55.224Z,18.70
2022-11-28T04:02:56.366Z,20.17
2022-11-28T04:05:45.870Z,20.40
2022-11-28T04:09:01.307Z,20.55
2022-11-28T04:11:39.960Z,21.08
2022-11-28T04:14:23.321Z,20.98
2022-11-28T04:17:16.979Z,21.88
2022-11-28T04:19:53.887Z,23.45
2022-11-28T04:22:28.832Z,21.73
2022-11-28T04:25:08.756Z,22.95
2022-11-28T04:27:41.950Z,22.95
2022-11-28T04:30:11.677Z,23.88
2022-11-28T04:32:48.558Z,24.60
2022-11-28T04:35:40.024Z,23.88
2022-11-28T04:38:09.710Z,24.05
2022-11-28T04:41:10.913Z,24.88
2022-11-28T04:43:50.833Z,25.10
2022-11-28T04:46:27.094Z,24.65
2022-11-28T04:48:54.936Z,25.60
2022-11-28T04:51:56.998Z,27.88
2022-11-28T04:54:45.622Z,27.23
2022-11-28T04:57:40.753Z,25.52
2022-11-28T05:00:13.830Z,27.63
2022-11-28T05:02:44.689Z,27.75
2022-11-28T05:05:17.705Z,27.55
2022-11-28T05:07:45.765Z,29.45
2022-11-28T05:10:15.194Z,28.80
2022-11-28T05:12:43.072Z,29.30
2022-11-28T05:15:11.552Z,29.02
2022-11-28T05:17:42.209Z,29.50
2022-11-28T05:20:10.866Z,29.10
2022-11-28T05:22:38.478Z,28.33
2022-11-28T05:25:06.774Z,28.52
2022-11-28T05:27:34.393Z,28.15
2022-11-28T05:30:02.221Z,28.38
2022-11-28T05:32:31.229Z,26.67
2022-11-28T05:34:59.151Z,26.10
2022-11-28T05:37:26.905Z,27.63
2022-11-28T05:39:54.702Z,25.90
2022-11-28T05:42:23.057Z,26.40
2022-11-28T05:44:50.851Z,25.00
2022-11-28T05:47:18.457Z,24.83
2022-11-28T05:49:47.443Z,24.50
2022-11-28T05:52:15.098Z,22.60
2022-11-28T05:54:42.752Z,22.00
2022-11-28T05:57:10.320Z,23.67
2022-11-28T05:59:37.924Z,22.02
2022-11-28T06:02:05.712Z,19.58
2022-11-28T06:04:33.598Z,22.75
2022-11-28T06:07:01.276Z,21.90
2022-11-28T06:09:28.876Z,21.52
2022-11-28T06:11:56.655Z,20.95
2022-11-28T06:14:24.256Z,21.23
2022-11-28T06:16:51.952Z,20.25
2022-11-28T06:19:19.728Z,20.00
2022-11-28T06:21:50.428Z,18.92
2022-11-28T06:24:18.444Z,19.98
2022-11-28T06:26:46.713Z,19.80
2022-11-28T06:29:14.274Z,19.70
2022-11-28T06:31:41.939Z,18.33
2022-11-28T06:34:13.030Z,18.13
2022-11-28T06:36:41.031Z,19.13
2022-11-28T06:39:12.796Z,18.67
2022-11-28T06:41:40.547Z,18.13
2022-11-28T06:44:09.070Z,18.17
2022-11-28T06:46:36.862Z,17.73
2022-11-28T06:49:04.653Z,16.88
2022-11-28T06:51:32.277Z,17.13
2022-11-28T06:53:59.964Z,18.00
2022-11-28T06:56:27.588Z,18.17
2022-11-28T06:58:57.998Z,19.08
2022-11-28T07:01:29.248Z,18.40
2022-11-28T07:03:57.378Z,19.73
2022-11-28T07:06:27.291Z,19.92
2022-11-28T07:08:57.886Z,19.67
2022-11-28T07:11:29.597Z,17.60
2022-11-28T07:14:00.434Z,20.20
2022-11-28T07:16:31.462Z,18.83
2022-11-28T07:19:00.522Z,19.63
2022-11-28T07:21:29.091Z,19.45
2022-11-28T07:23:59.368Z,18.63
2022-11-28T07:26:27.393Z,18.17
2022-11-28T07:28:57.904Z,18.83
2022-11-28T07:31:28.848Z,19.23
2022-11-28T07:33:56.497Z,18.98
2022-11-28T07:36:28.468Z,19.60
2022-11-28T07:39:02.199Z,19.38
2022-11-28T07:41:30.160Z,18.67
2022-11-28T07:44:00.982Z,19.52
2022-11-28T07:46:31.074Z,17.98
2022-11-28T07:48:59.023Z,17.15
2022-11-28T07:51:33.447Z,18.52
2022-11-28T07:54:02.535Z,18.50
2022-11-28T07:57:04.650Z,17.17
2022-11-28T07:59:23.013Z,17.38
2022-11-28T08:01:50.740Z,18.38
2022-11-28T08:04:18.465Z,17.60
2022-11-28T08:06:46.069Z,17.42
2022-11-28T08:09:13.721Z,18.17
2022-11-28T08:11:42.200Z,16.08
2022-11-28T08:14:10.034Z,16.90
2022-11-28T08:16:41.207Z,16.42
2022-11-28T08:19:08.895Z,16.90
2022-11-28T08:21:38.053Z,16.83
2022-11-28T08:24:08.016Z,16.52
2022-11-28T08:26:36.717Z,16.30
2022-11-28T08:29:04.441Z,15.50
2022-11-28T08:31:38.441Z,16.00
2022-11-28T08:34:09.758Z,16.23
2022-11-28T08:36:37.818Z,14.95
2022-11-28T08:39:23.373Z,15.50
2022-11-28T08:41:58.956Z,15.02
2022-11-28T08:44:30.402Z,15.60
2022-11-28T08:46:58.297Z,15.82
2022-11-28T08:49:25.888Z,14.95
2022-11-28T08:51:53.531Z,14.90
2022-11-28T08:54:21.142Z,15.02
2022-11-28T08:56:48.791Z,15.32
2022-11-28T08:59:16.417Z,14.73
2022-11-28T09:01:44.108Z,14.63
2022-11-28T09:04:11.857Z,14.68
2022-11-28T09:06:40.381Z,14.23
2022-11-28T09:09:11.214Z,13.57
2022-11-28T09:11:39.212Z,14.48
2022-11-28T09:14:07.450Z,14.98
2022-11-28T09:16:35.076Z,13.60
2022-11-28T09:19:03.433Z,16.52
2022-11-28T09:21:31.009Z,16.63
2022-11-28T09:23:59.616Z,17.63
2022-11-28T09:26:27.368Z,18.70
2022-11-28T09:28:54.977Z,21.42
2022-11-28T09:31:23.371Z,20.75
2022-11-28T09:33:51.146Z,22.17
2022-11-28T09:36:24.894Z,21.83
2022-11-28T09:38:52.792Z,23.02
2022-11-28T09:41:51.942Z,24.23
2022-11-28T09:44:27.317Z,23.38
2022-11-28T09:47:00.802Z,23.10
2022-11-28T09:49:40.781Z,22.63
2022-11-28T09:52:30.712Z,23.10
2022-11-28T09:55:04.220Z,22.80
2022-11-28T09:57:48.355Z,22.30
2022-11-28T10:00:19.036Z,22.23
2022-11-28T10:03:01.864Z,22.33
2022-11-28T10:05:40.761Z,22.25
2022-11-28T10:08:23.573Z,21.17
2022-11-28T10:11:21.010Z,21.65
2022-11-28T10:14:53.111Z,22.38
2022-11-28T10:17:35.641Z,20.33
2022-11-28T10:20:14.771Z,22.35
2022-11-28T10:23:08.343Z,23.15
2022-11-28T10:25:45.859Z,25.60
2022-11-28T10:28:39.276Z,25.30
2022-11-28T10:31:45.310Z,23.17
2022-11-28T10:34:27.283Z,24.08
2022-11-28T10:37:04.227Z,25.23
2022-11-28T10:39:31.804Z,24.67
2022-11-28T10:42:41.129Z,25.55
2022-11-28T10:45:14.877Z,24.33
2022-11-28T10:48:39.015Z,27.17
2022-11-28T10:51:44.716Z,24.92
2022-11-28T10:55:00.784Z,28.60
2022-11-28T10:57:43.950Z,27.17
2022-11-28T11:00:13.876Z,27.92
2022-11-28T11:03:02.272Z,28.63
2022-11-28T11:05:37.088Z,27.98
2022-11-28T11:08:19.355Z,28.60
2022-11-28T11:10:51.274Z,28.55
2022-11-28T11:13:26.903Z,28.60
2022-11-28T11:18:46.659Z,28.17
2022-11-28T11:21:25.170Z,27.98
2022-11-28T11:24:16.778Z,27.50
2022-11-28T11:26:47.815Z,26.27
2022-11-28T11:29:35.599Z,25.10
2022-11-28T11:32:06.386Z,25.85
2022-11-28T11:34:44.643Z,24.08
2022-11-28T11:37:23.341Z,25.50
2022-11-28T11:39:53.426Z,22.05
2022-11-28T11:42:31.296Z,24.23
2022-11-28T11:45:34.188Z,26.08
2022-11-28T11:48:03.970Z,24.38
2022-11-28T11:50:33.126Z,23.48
2022-11-28T11:53:13.777Z,23.63
2022-11-28T11:55:50.128Z,24.38
2022-11-28T11:58:52.351Z,23.83
2022-11-28T12:01:21.616Z,25.25
2022-11-28T12:03:57.858Z,26.08
2022-11-28T12:06:35.961Z,24.75
2022-11-28T12:09:28.386Z,24.40
2022-11-28T12:12:25.835Z,23.38
2022-11-28T12:14:53.444Z,23.58
2022-11-28T12:17:48.951Z,23.17
2022-11-28T12:20:46.420Z,22.98
2022-11-28T12:23:47.887Z,23.42
2022-11-28T12:26:55.466Z,23.58
2022-11-28T12:29:54.236Z,22.83
2022-11-28T12:32:55.218Z,22.75
2022-11-28T12:35:42.458Z,23.85
2022-11-28T12:38:36.900Z,22.77
2022-11-28T12:41:32.799Z,25.15
2022-11-28T12:44:27.425Z,24.75
2022-11-28T12:47:11.896Z,25.80
2022-11-28T12:50:03.949Z,25.65
2022-11-28T12:52:49.974Z,26.00
2022-11-28T12:55:43.152Z,25.80
2022-11-28T12:58:27.380Z,25.50
2022-11-28T13:01:45.224Z,26.23
2022-11-28T13:04:56.854Z,25.00
2022-11-28T13:08:03.424Z,25.80
2022-11-28T13:10:56.556Z,25.38
2022-11-28T13:13:43.321Z,24.90
2022-11-28T13:16:27.357Z,24.25
2022-11-28T13:19:06.158Z,24.50
2022-11-28T13:21:58.643Z,23.48
2022-11-28T13:24:38.761Z,23.73
2022-11-28T13:27:49.023Z,22.75
2022-11-28T13:30:26.873Z,22.80
2022-11-28T13:33:57.459Z,23.65
2022-11-28T13:39:42.718Z,21.17
2022-11-28T13:42:59.458Z,22.55
2022-11-28T13:45:32.248Z,21.95
2022-11-28T13:48:22.683Z,21.00
2022-11-28T13:51:18.372Z,20.93
2022-11-28T13:53:49.593Z,22.05
2022-11-28T13:56:25.535Z,20.60
2022-11-28T13:58:58.168Z,20.05
2022-11-28T14:01:29.158Z,22.50
2022-11-28T14:04:02.466Z,22.33
2022-11-28T14:06:46.822Z,22.27
2022-11-28T14:09:17.560Z,20.63
2022-11-28T14:12:28.282Z,21.05
2022-11-28T14:15:45.417Z,21.95
2022-11-28T14:18:56.813Z,20.60
2022-11-28T14:21:48.640Z,21.17
2022-11-28T14:24:16.191Z,20.10
2022-11-28T14:26:44.857Z,18.13
2022-11-28T14:29:28.734Z,20.50
2022-11-28T14:32:27.831Z,20.05
2022-11-28T14:34:48.851Z,19.48
2022-11-28T14:37:19.720Z,19.58
2022-11-28T14:39:50.384Z,18.92
2022-11-28T14:42:58.958Z,17.67
2022-11-28T14:45:41.102Z,18.35
2022-11-28T14:48:15.731Z,18.48
2022-11-28T14:50:56.230Z,16.95
2022-11-28T14:53:43.203Z,15.43
2022-11-28T14:56:14.828Z,16.25
2022-11-28T14:58:48.893Z,17.13
2022-11-28T15:01:49.293Z,16.63
2022-11-28T15:04:19.783Z,15.20
2022-11-28T15:06:50.998Z,15.48
2022-11-28T15:09:50.818Z,15.18
2022-11-28T15:12:49.298Z,15.30
2022-11-28T15:15:17.645Z,16.55
2022-11-28T15:17:51.349Z,15.68
2022-11-28T15:20:47.576Z,15.65
2022-11-28T15:23:38.351Z,17.45
2022-11-28T15:26:07.154Z,15.88
2022-11-28T15:28:36.266Z,14.82
2022-11-28T15:31:05.879Z,16.02
2022-11-28T15:33:34.364Z,15.80
2022-11-28T15:36:25.583Z,16.55
2022-11-28T15:38:54.737Z,17.33
2022-11-28T15:41:26.830Z,16.23
2022-11-28T15:43:56.213Z,15.10
2022-11-28T15:46:30.095Z,14.30
2022-11-28T15:48:58.507Z,14.63
2022-11-28T15:51:35.640Z,13.55
2022-11-28T15:54:17.996Z,13.32
2022-11-28T15:56:59.775Z,15.68
2022-11-28T15:59:28.987Z,15.88
2022-11-28T16:02:15.685Z,15.98
2022-11-28T16:04:45.349Z,15.43
2022-11-28T16:07:16.061Z,15.70
2022-11-28T16:09:56.715Z,16.20
2022-11-28T16:12:25.460Z,14.82
2022-11-28T16:14:56.203Z,15.93
2022-11-28T16:17:33.835Z,19.13
2022-11-28T16:20:03.749Z,13.60
2022-11-28T16:22:37.060Z,10.05
2022-11-28T16:25:25.122Z,11.30
2022-11-28T16:27:53.388Z,12.70
2022-11-28T16:30:48.111Z,16.00
2022-11-28T16:33:42.487Z,19.08
2022-11-28T16:36:16.301Z,19.35
2022-11-28T16:38:45.188Z,19.23
2022-11-28T16:41:21.326Z,18.20
2022-11-28T16:44:15.028Z,17.67
2022-11-28T16:46:55.673Z,16.60
2022-11-28T16:49:38.685Z,15.05
2022-11-28T16:52:21.553Z,15.93
2022-11-28T16:54:56.539Z,14.85
2022-11-28T16:57:28.853Z,13.60
2022-11-28T17:00:00.507Z,14.45
2022-11-28T17:02:28.334Z,16.27
2022-11-28T17:04:55.959Z,15.50
2022-11-28T17:07:24.624Z,15.43
2022-11-28T17:09:52.375Z,14.15
2022-11-28T17:12:39.813Z,14.50
2022-11-28T17:15:14.774Z,14.40
2022-11-28T17:17:42.753Z,15.23
2022-11-28T17:20:13.135Z,14.90
2022-11-28T17:22:47.552Z,13.98
2022-11-28T17:25:18.312Z,12.65
2022-11-28T17:27:48.000Z,13.75
2022-11-28T17:30:18.656Z,10.57
2022-11-28T17:32:49.198Z,9.15
2022-11-28T17:35:31.178Z,9.02
2022-11-28T17:37:58.766Z,9.90
2022-11-28T17:40:37.521Z,11.95
2022-11-28T17:43:07.433Z,12.20
2022-11-28T17:45:36.271Z,11.95
2022-11-28T17:48:03.985Z,11.82
2022-11-28T17:50:32.273Z,12.80
2022-11-28T17:52:59.933Z,12.60
2022-11-28T17:55:28.969Z,10.63
2022-11-28T17:57:56.792Z,10.07
2022-11-28T18:00:24.810Z,10.50
2022-11-28T18:02:52.881Z,10.25
2022-11-28T18:05:20.842Z,11.18
2022-11-28T18:07:48.571Z,11.52
2022-11-28T18:10:16.352Z,12.13
2022-11-28T18:12:44.006Z,11.32
2022-11-28T18:15:11.863Z,10.32
2022-11-28T18:17:39.422Z,9.57
2022-11-28T18:20:08.574Z,10.68
2022-11-28T18:22:36.550Z,10.15
2022-11-28T18:25:05.194Z,7.60
2022-11-28T18:27:34.489Z,8.77
2022-11-28T18:30:02.313Z,6.80
2022-11-28T18:32:30.202Z,6.55
2022-11-28T18:34:58.257Z,5.97
2022-11-28T18:37:28.309Z,5.18
2022-11-28T18:39:55.953Z,5.40
2022-11-28T18:42:23.762Z,5.25
2022-11-28T18:44:51.425Z,4.80
2022-11-28T18:47:19.466Z,5.10
2022-11-28T18:49:47.264Z,6.03
2022-11-28T18:52:14.987Z,7.47
2022-11-28T18:54:43.392Z,7.43
2022-11-28T18:57:11.466Z,7.28
2022-11-28T18:59:39.249Z,5.50
2022-11-28T19:02:07.488Z,5.65
2022-11-28T19:04:36.383Z,5.10
2022-11-28T19:07:04.115Z,5.13
2022-11-28T19:09:32.531Z,5.85
2022-11-28T19:12:00.168Z,7.85
2022-11-28T19:14:28.694Z,8.68
2022-11-28T19:16:57.188Z,7.50
2022-11-28T19:19:24.823Z,8.35
2022-11-28T19:21:52.421Z,9.68
2022-11-28T19:24:20.276Z,11.57
2022-11-28T19:26:48.018Z,12.43
2022-11-28T19:29:16.130Z,11.25
2022-11-28T19:31:43.836Z,11.30
2022-11-28T19:34:17.173Z,12.40
2022-11-28T19:36:50.091Z,12.35
2022-11-28T19:39:22.427Z,12.13
2022-11-28T19:41:52.503Z,13.07
2022-11-28T19:44:24.686Z,12.65
2022-11-28T19:46:54.190Z,12.77
2022-11-28T19:49:24.438Z,8.85
2022-11-28T19:51:54.480Z,6.63
2022-11-28T19:54:22.317Z,7.03
2022-11-28T19:56:51.095Z,6.65
2022-11-28T19:59:19.388Z,5.88
2022-11-28T20:01:50.146Z,8.25
2022-11-28T20:04:19.500Z,8.52
2022-11-28T20:06:47.323Z,8.23
2022-11-28T20:09:15.110Z,7.47
2022-11-28T20:11:45.113Z,7.15
2022-11-28T20:14:20.187Z,6.00
2022-11-28T20:16:48.542Z,6.50
2022-11-28T20:19:17.859Z,7.03
2022-11-28T20:21:46.685Z,5.50
2022-11-28T20:24:16.173Z,5.60
2022-11-28T20:26:46.079Z,6.55
2022-11-28T20:29:17.527Z,5.95
2022-11-28T20:31:47.674Z,6.40
2022-11-28T20:34:18.978Z,6.60
2022-11-28T20:36:53.498Z,5.78
2022-11-28T20:39:21.687Z,5.55
2022-11-28T20:41:49.362Z,5.85
2022-11-28T20:44:18.778Z,5.53
2022-11-28T20:46:46.768Z,4.93
2022-11-28T20:49:17.365Z,5.28
2022-11-28T20:51:45.836Z,6.38
2022-11-28T20:54:14.437Z,6.10
2022-11-28T20:57:19.148Z,6.40
2022-11-28T20:59:32.858Z,6.10
2022-11-28T21:02:00.567Z,6.43
2022-11-28T21:04:28.244Z,7.32
2022-11-28T21:06:55.879Z,7.55
2022-11-28T21:09:23.523Z,8.32
2022-11-28T21:11:57.473Z,7.03
2022-11-28T21:14:28.060Z,8.00
2022-11-28T21:16:56.526Z,8.85
2022-11-28T21:19:24.617Z,7.68
2022-11-28T21:21:52.394Z,7.47
2022-11-28T21:24:20.336Z,6.20
2022-11-28T21:26:52.904Z,8.32
2022-11-28T21:29:22.880Z,9.75
2022-11-28T21:31:51.043Z,9.35
2022-11-28T21:34:19.511Z,9.57
2022-11-28T21:36:47.529Z,9.25
2022-11-28T21:39:19.936Z,9.30
2022-11-28T21:41:47.988Z,8.63
2022-11-28T21:44:15.744Z,8.20
2022-11-28T21:46:43.532Z,8.15
2022-11-28T21:49:12.538Z,7.97
2022-11-28T21:51:41.478Z,8.15
2022-11-28T21:54:13.524Z,8.43
2022-11-28T21:56:41.879Z,8.20
2022-11-28T21:59:09.632Z,9.27
2022-11-28T22:01:37.483Z,10.63
2022-11-28T22:04:06.495Z,9.20
2022-11-28T22:06:34.180Z,9.45
2022-11-28T22:09:09.047Z,8.35
2022-11-28T22:11:38.376Z,8.93
2022-11-28T22:14:06.541Z,9.30
2022-11-28T22:16:34.964Z,9.13
2022-11-28T22:19:04.106Z,9.43
2022-11-28T22:24:21.474Z,8.52
2022-11-28T22:26:50.087Z,8.98
2022-11-28T22:29:18.922Z,9.23
2022-11-28T22:31:46.866Z,8.77
2022-11-28T22:34:14.569Z,9.30
2022-11-28T22:36:42.222Z,8.85
2022-11-28T22:39:11.590Z,9.07
2022-11-28T22:41:39.432Z,9.35
2022-11-28T22:44:09.522Z,9.00
2022-11-28T22:46:38.080Z,8.98
2022-11-28T22:49:06.948Z,8.68
2022-11-28T22:51:35.480Z,8.57
2022-11-28T22:54:04.674Z,8.98
2022-11-28T22:56:34.137Z,8.18
2022-11-28T22:59:04.873Z,8.05
2022-11-28T23:01:34.197Z,8.98
2022-11-28T23:04:02.645Z,8.63
2022-11-28T23:06:33.858Z,7.82
2022-11-28T23:09:05.873Z,8.18
2022-11-28T23:11:37.049Z,7.78
2022-11-28T23:14:06.351Z,7.72
2022-11-28T23:16:40.149Z,7.68
2022-11-28T23:19:13.518Z,7.93
2022-11-28T23:21:44.514Z,8.82
2022-11-28T23:24:21.307Z,9.45
2022-11-28T23:26:51.846Z,8.30
2022-11-28T23:29:20.315Z,9.18
2022-11-28T23:31:49.716Z,8.77
2022-11-28T23:34:17.418Z,8.23
2022-11-28T23:36:47.319Z,9.60
2022-11-28T23:39:19.400Z,6.80
2022-11-28T23:41:47.865Z,7.68
2022-11-28T23:44:18.144Z,6.65
2022-11-28T23:46:47.290Z,6.68
2022-11-28T23:49:15.410Z,7.80
2022-11-28T23:51:43.487Z,7.10
2022-11-28T23:54:12.263Z,7.82
2022-11-28T23:56:41.885Z,7.25
2022-11-28T23:59:11.765Z,7.00
